createdAt,value
2018-09-22T00:00:18.928Z,92.64
2018-09-22T00:01:18.868Z,93.02
2018-09-22T00:02:18.868Z,92.30
2018-09-22T00:03:18.802Z,92.25
2018-09-22T00:04:18.767Z,93.02
2018-09-22T00:05:18.716Z,91.83
2018-09-22T00:06:18.678Z,91.93
2018-09-22T00:07:18.651Z,92.30
2018-09-22T00:08:18.626Z,92.97
2018-09-22T00:09:18.558Z,92.97
2018-09-22T00:10:18.514Z,92.59
2018-09-22T00:11:18.487Z,92.40
2018-09-22T00:12:18.459Z,92.79
2018-09-22T00:13:18.406Z,92.30
2018-09-22T00:14:18.357Z,92.59
2018-09-22T00:15:18.308Z,92.11
2018-09-22T00:16:18.275Z,92.59
2018-09-22T00:17:18.228Z,93.26
2018-09-22T00:18:18.223Z,93.07
2018-09-22T00:19:18.174Z,93.07
2018-09-22T00:20:18.147Z,92.88
2018-09-22T00:21:18.080Z,92.79
2018-09-22T00:22:18.047Z,92.69
2018-09-22T00:23:18.035Z,92.59
2018-09-22T00:24:17.943Z,93.36
2018-09-22T00:25:17.898Z,92.79
2018-09-22T00:26:17.860Z,92.59
2018-09-22T00:27:17.875Z,92.25
2018-09-22T00:28:17.844Z,92.02
2018-09-22T00:29:17.745Z,92.16
2018-09-22T00:30:17.730Z,92.40
2018-09-22T00:31:17.683Z,92.59
2018-09-22T00:32:17.633Z,93.02
2018-09-22T00:33:17.594Z,92.30
2018-09-22T00:34:17.570Z,91.88
2018-09-22T00:35:17.524Z,92.30
2018-09-22T00:36:17.460Z,92.40
2018-09-22T00:37:17.416Z,92.59
2018-09-22T00:38:17.378Z,92.54
2018-09-22T00:39:17.368Z,92.93
2018-09-22T00:40:17.333Z,92.11
2018-09-22T00:41:17.270Z,92.88
2018-09-22T00:42:17.247Z,92.45
2018-09-22T00:43:17.202Z,93.02
2018-09-22T00:44:17.184Z,92.88
2018-09-22T00:45:17.107Z,92.88
2018-09-22T00:46:17.066Z,92.69
2018-09-22T00:47:17.017Z,93.45
2018-09-22T00:48:16.981Z,93.26
2018-09-22T00:49:16.941Z,93.55
2018-09-22T00:50:16.928Z,93.26
2018-09-22T00:51:16.868Z,93.45
2018-09-22T00:52:16.840Z,93.55
2018-09-22T00:53:16.791Z,93.74
2018-09-22T00:54:16.760Z,94.02
2018-09-22T00:55:16.724Z,93.84
2018-09-22T00:56:16.679Z,94.12
2018-09-22T00:57:16.633Z,94.31
2018-09-22T00:58:16.584Z,94.22
2018-09-22T00:59:16.538Z,94.31
2018-09-22T01:00:16.540Z,93.93
2018-09-22T01:01:16.481Z,94.41
2018-09-22T01:02:16.441Z,94.79
2018-09-22T01:03:16.411Z,94.79
2018-09-22T01:04:16.336Z,94.02
2018-09-22T01:05:16.351Z,94.98
2018-09-22T01:06:16.271Z,95.46
2018-09-22T01:07:16.240Z,94.89
2018-09-22T01:08:16.184Z,94.60
2018-09-22T01:09:16.157Z,94.79
2018-09-22T01:10:16.159Z,95.56
2018-09-22T01:11:16.055Z,95.56
2018-09-22T01:12:16.024Z,95.56
2018-09-22T01:13:15.996Z,95.07
2018-09-22T01:14:15.939Z,95.84
2018-09-22T01:15:15.958Z,96.03
2018-09-22T01:16:15.855Z,96.32
2018-09-22T01:17:15.809Z,96.75
2018-09-22T01:18:15.794Z,96.56
2018-09-22T01:19:15.757Z,96.75
2018-09-22T01:20:15.738Z,97.61
2018-09-22T01:21:15.662Z,97.71
2018-09-22T01:22:15.625Z,97.71
2018-09-22T01:23:15.573Z,97.32
2018-09-22T01:24:15.540Z,97.71
2018-09-22T01:25:15.502Z,98.28
2018-09-22T01:26:15.483Z,97.99
2018-09-22T01:27:15.433Z,97.89
2018-09-22T01:28:15.368Z,97.80
2018-09-22T01:29:15.347Z,97.99
2018-09-22T01:30:15.298Z,97.99
2018-09-22T01:31:15.288Z,98.08
2018-09-22T01:32:15.239Z,97.89
2018-09-22T01:33:25.241Z,98.08
2018-09-22T01:34:15.134Z,98.18
2018-09-22T01:35:15.088Z,98.37
2018-09-22T01:36:15.095Z,97.99
2018-09-22T01:37:15.065Z,98.37
2018-09-22T01:38:15.022Z,98.75
2018-09-22T01:39:15.203Z,98.99
2018-09-22T01:40:14.882Z,99.18
2018-09-22T01:41:14.847Z,99.57
2018-09-22T01:42:14.836Z,98.90
2018-09-22T01:43:14.786Z,99.71
2018-09-22T01:44:14.724Z,99.62
2018-09-22T01:45:14.697Z,98.75
2018-09-22T01:46:14.673Z,99.14
2018-09-22T01:47:14.858Z,99.04
2018-09-22T01:48:14.566Z,99.95
2018-09-22T01:49:14.524Z,99.37
2018-09-22T01:50:14.503Z,99.47
2018-09-22T01:51:14.473Z,99.85
2018-09-22T01:52:14.433Z,99.99
2018-09-22T01:53:14.368Z,99.76
2018-09-22T01:54:14.321Z,99.99
2018-09-22T01:55:14.278Z,99.99
2018-09-22T01:56:24.754Z,99.99
2018-09-22T01:57:14.217Z,99.99
2018-09-22T01:58:14.155Z,99.99
2018-09-22T01:59:14.108Z,99.99
2018-09-22T02:00:14.089Z,99.99
2018-09-22T02:01:14.041Z,99.99
2018-09-22T02:02:14.024Z,99.85
2018-09-22T02:03:13.963Z,99.99
2018-09-22T02:04:13.947Z,99.99
2018-09-22T02:05:13.866Z,99.99
2018-09-22T02:06:13.838Z,99.99
2018-09-22T02:07:13.803Z,99.57
2018-09-22T02:08:13.778Z,99.99
2018-09-22T02:09:13.727Z,99.99
2018-09-22T02:10:13.693Z,99.99
2018-09-22T02:11:13.636Z,99.99
2018-09-22T02:12:13.610Z,99.85
2018-09-22T02:13:13.601Z,99.99
2018-09-22T02:14:13.526Z,99.99
2018-09-22T02:15:13.497Z,99.99
2018-09-22T02:16:13.443Z,99.99
2018-09-22T02:17:13.429Z,99.99
2018-09-22T02:18:13.338Z,99.99
2018-09-22T02:19:13.321Z,99.99
2018-09-22T02:20:23.790Z,99.99
2018-09-22T02:21:13.226Z,99.99
2018-09-22T02:22:13.191Z,99.99
2018-09-22T02:23:13.169Z,99.99
2018-09-22T02:24:13.137Z,99.99
2018-09-22T02:25:13.082Z,99.99
2018-09-22T02:26:13.014Z,99.99
2018-09-22T02:27:13.056Z,99.99
2018-09-22T02:28:12.960Z,99.99
2018-09-22T02:29:12.899Z,99.99
2018-09-22T02:30:12.863Z,99.99
2018-09-22T02:31:12.875Z,99.99
2018-09-22T02:32:12.777Z,99.99
2018-09-22T02:33:12.765Z,99.99
2018-09-22T02:34:12.703Z,99.99
2018-09-22T02:35:12.653Z,99.99
2018-09-22T02:36:12.613Z,99.99
2018-09-22T02:37:12.571Z,99.99
2018-09-22T02:38:12.532Z,99.99
2018-09-22T02:39:12.499Z,99.99
2018-09-22T02:40:12.488Z,99.99
2018-09-22T02:41:12.417Z,99.99
2018-09-22T02:42:12.379Z,99.99
2018-09-22T02:43:12.371Z,99.99
2018-09-22T02:44:12.333Z,99.99
2018-09-22T02:45:12.254Z,99.99
2018-09-22T02:46:12.213Z,99.99
2018-09-22T02:47:12.200Z,99.99
2018-09-22T02:48:12.139Z,99.99
2018-09-22T02:49:12.103Z,99.99
2018-09-22T02:50:12.052Z,99.99
2018-09-22T02:51:12.005Z,99.99
2018-09-22T02:52:11.954Z,99.99
2018-09-22T02:53:11.937Z,99.99
2018-09-22T02:54:11.913Z,99.99
2018-09-22T02:55:11.837Z,99.99
2018-09-22T02:56:11.817Z,99.99
2018-09-22T02:57:11.761Z,99.99
2018-09-22T02:58:11.729Z,99.99
2018-09-22T02:59:11.688Z,99.99
2018-09-22T03:00:11.657Z,99.99
2018-09-22T03:01:11.606Z,99.99
2018-09-22T03:02:11.559Z,99.99
2018-09-22T03:03:11.514Z,99.99
2018-09-22T03:04:11.493Z,99.99
2018-09-22T03:05:11.470Z,99.99
2018-09-22T03:06:11.378Z,99.99
2018-09-22T03:07:11.343Z,99.99
2018-09-22T03:08:11.309Z,99.99
2018-09-22T03:09:11.268Z,99.99
2018-09-22T03:10:11.706Z,99.99
2018-09-22T03:11:11.187Z,99.99
2018-09-22T03:12:11.141Z,99.99
2018-09-22T03:13:11.099Z,99.99
2018-09-22T03:14:11.063Z,99.99
2018-09-22T03:15:11.089Z,99.99
2018-09-22T03:16:11.016Z,99.99
2018-09-22T03:17:10.965Z,99.99
2018-09-22T03:18:10.893Z,99.99
2018-09-22T03:19:10.867Z,99.99
2018-09-22T03:20:10.809Z,99.99
2018-09-22T03:21:10.800Z,99.99
2018-09-22T03:22:10.740Z,99.99
2018-09-22T03:23:10.696Z,99.99
2018-09-22T03:24:10.653Z,99.99
2018-09-22T03:25:10.626Z,99.99
2018-09-22T03:26:10.597Z,99.99
2018-09-22T03:27:10.536Z,99.99
2018-09-22T03:28:10.492Z,99.99
2018-09-22T03:29:10.455Z,99.99
2018-09-22T03:30:10.413Z,99.99
2018-09-22T03:31:20.352Z,99.99
2018-09-22T03:32:10.327Z,99.99
2018-09-22T03:33:10.288Z,99.99
2018-09-22T03:34:10.251Z,99.99
2018-09-22T03:35:10.205Z,99.99
2018-09-22T03:36:10.152Z,99.99
2018-09-22T03:37:10.157Z,99.99
2018-09-22T03:38:10.082Z,99.99
2018-09-22T03:39:10.036Z,99.99
2018-09-22T03:40:09.991Z,99.99
2018-09-22T03:41:09.948Z,99.99
2018-09-22T03:42:09.929Z,99.99
2018-09-22T03:43:09.872Z,99.99
2018-09-22T03:44:09.841Z,99.99
2018-09-22T03:45:09.801Z,99.99
2018-09-22T03:46:09.751Z,99.99
2018-09-22T03:47:09.729Z,99.99
2018-09-22T03:48:09.677Z,99.99
2018-09-22T03:49:09.632Z,99.99
2018-09-22T03:50:09.590Z,99.99
2018-09-22T03:51:09.553Z,99.99
2018-09-22T03:52:09.501Z,99.99
2018-09-22T03:53:09.500Z,99.99
2018-09-22T03:54:09.426Z,99.99
2018-09-22T03:55:09.406Z,99.99
2018-09-22T03:56:09.338Z,99.99
2018-09-22T03:57:09.308Z,99.99
2018-09-22T03:58:09.303Z,99.99
2018-09-22T03:59:09.218Z,99.99
2018-09-22T04:00:09.191Z,99.99
2018-09-22T04:01:09.146Z,99.99
2018-09-22T04:02:09.111Z,99.99
2018-09-22T04:03:09.081Z,99.99
2018-09-22T04:04:09.080Z,99.99
2018-09-22T04:05:08.985Z,99.99
2018-09-22T04:06:08.967Z,99.99
2018-09-22T04:07:08.904Z,99.99
2018-09-22T04:08:08.898Z,99.99
2018-09-22T04:09:08.834Z,99.99
2018-09-22T04:10:08.796Z,99.99
2018-09-22T04:11:08.728Z,99.99
2018-09-22T04:12:08.713Z,99.99
2018-09-22T04:13:08.663Z,99.99
2018-09-22T04:14:08.670Z,99.99
2018-09-22T04:15:08.581Z,99.99
2018-09-22T04:16:08.529Z,99.99
2018-09-22T04:17:08.482Z,99.99
2018-09-22T04:18:08.470Z,99.99
2018-09-22T04:19:08.450Z,99.99
2018-09-22T04:20:08.384Z,99.99
2018-09-22T04:21:08.335Z,99.99
2018-09-22T04:22:08.297Z,99.99
2018-09-22T04:23:08.248Z,99.99
2018-09-22T04:24:08.230Z,99.99
2018-09-22T04:25:08.160Z,99.99
2018-09-22T04:26:08.128Z,99.99
2018-09-22T04:27:08.105Z,99.99
2018-09-22T04:28:08.057Z,99.99
2018-09-22T04:29:08.049Z,99.99
2018-09-22T04:30:07.975Z,99.99
2018-09-22T04:31:07.925Z,99.99
2018-09-22T04:32:07.894Z,99.99
2018-09-22T04:33:07.876Z,99.99
2018-09-22T04:34:07.817Z,99.99
2018-09-22T04:35:07.784Z,99.99
2018-09-22T04:36:18.245Z,99.99
2018-09-22T04:37:07.675Z,99.99
2018-09-22T04:38:07.639Z,99.99
2018-09-22T04:39:07.630Z,99.99
2018-09-22T04:40:17.430Z,99.99
2018-09-22T04:41:07.517Z,99.99
2018-09-22T04:42:07.496Z,99.99
2018-09-22T04:43:07.482Z,99.99
2018-09-22T04:44:07.391Z,99.99
2018-09-22T04:45:07.348Z,99.99
2018-09-22T04:46:07.348Z,99.99
2018-09-22T04:47:07.279Z,99.99
2018-09-22T04:48:07.247Z,99.99
2018-09-22T04:49:07.193Z,99.99
2018-09-22T04:50:07.165Z,99.99
2018-09-22T04:51:07.174Z,99.99
2018-09-22T04:52:07.082Z,99.99
2018-09-22T04:53:07.077Z,99.99
2018-09-22T04:54:06.996Z,99.99
2018-09-22T04:55:06.972Z,99.99
2018-09-22T04:56:06.955Z,99.99
2018-09-22T04:57:06.870Z,99.99
2018-09-22T04:58:06.835Z,99.99
2018-09-22T04:59:06.783Z,99.99
2018-09-22T05:00:06.774Z,99.99
2018-09-22T05:01:06.771Z,99.99
2018-09-22T05:02:06.701Z,99.99
2018-09-22T05:03:06.639Z,99.99
2018-09-22T05:04:06.591Z,99.99
2018-09-22T05:05:06.543Z,99.99
2018-09-22T05:06:06.508Z,99.99
2018-09-22T05:07:06.499Z,99.99
2018-09-22T05:08:06.447Z,99.99
2018-09-22T05:09:06.427Z,99.99
2018-09-22T05:10:06.357Z,99.99
2018-09-22T05:11:06.353Z,99.99
2018-09-22T05:12:06.277Z,99.99
2018-09-22T05:13:06.239Z,99.99
2018-09-22T05:14:06.198Z,99.99
2018-09-22T05:15:06.146Z,99.99
2018-09-22T05:16:06.158Z,99.99
2018-09-22T05:17:06.080Z,99.99
2018-09-22T05:18:06.023Z,99.99
2018-09-22T05:19:05.988Z,99.99
2018-09-22T05:20:05.957Z,99.99
2018-09-22T05:21:05.922Z,99.99
2018-09-22T05:22:05.889Z,99.99
2018-09-22T05:23:05.842Z,99.99
2018-09-22T05:24:05.808Z,99.99
2018-09-22T05:25:05.747Z,99.99
2018-09-22T05:26:05.703Z,99.99
2018-09-22T05:27:05.696Z,99.99
2018-09-22T05:28:15.936Z,99.99
2018-09-22T05:29:05.665Z,99.99
2018-09-22T05:30:05.538Z,99.99
2018-09-22T05:31:05.529Z,99.99
2018-09-22T05:32:05.488Z,99.99
2018-09-22T05:33:05.437Z,99.99
2018-09-22T05:34:05.373Z,99.99
2018-09-22T05:35:05.321Z,99.99
2018-09-22T05:36:05.294Z,99.99
2018-09-22T05:37:05.300Z,99.99
2018-09-22T05:38:05.231Z,99.99
2018-09-22T05:39:05.188Z,99.99
2018-09-22T05:40:05.144Z,99.99
2018-09-22T05:41:05.106Z,99.99
2018-09-22T05:42:05.052Z,99.99
2018-09-22T05:43:05.047Z,99.99
2018-09-22T05:44:04.997Z,99.99
2018-09-22T05:45:04.939Z,99.99
2018-09-22T05:46:04.894Z,99.99
2018-09-22T05:47:04.848Z,99.99
2018-09-22T05:48:04.825Z,99.99
2018-09-22T05:49:04.782Z,99.99
2018-09-22T05:50:04.739Z,99.99
2018-09-22T05:51:04.689Z,99.99
2018-09-22T05:52:15.765Z,99.99
2018-09-22T05:53:04.658Z,99.99
2018-09-22T05:54:04.564Z,99.99
2018-09-22T05:55:04.520Z,99.99
2018-09-22T05:56:04.580Z,99.99
2018-09-22T05:57:04.440Z,99.99
2018-09-22T05:58:04.453Z,99.99
2018-09-22T05:59:04.370Z,99.99
2018-09-22T06:00:04.323Z,99.99
2018-09-22T06:01:04.312Z,99.99
2018-09-22T06:02:04.236Z,99.99
2018-09-22T06:03:04.195Z,99.99
2018-09-22T06:04:04.287Z,99.99
2018-09-22T06:05:04.129Z,99.99
2018-09-22T06:06:04.086Z,99.99
2018-09-22T06:07:04.043Z,99.99
2018-09-22T06:08:04.016Z,99.99
2018-09-22T06:09:04.013Z,99.99
2018-09-22T06:10:03.953Z,99.99
2018-09-22T06:11:03.882Z,99.99
2018-09-22T06:12:03.833Z,99.99
2018-09-22T06:13:03.787Z,99.99
2018-09-22T06:14:03.763Z,99.99
2018-09-22T06:15:03.775Z,99.99
2018-09-22T06:16:03.662Z,99.99
2018-09-22T06:17:03.644Z,99.19
2018-09-22T06:18:03.615Z,98.18
2018-09-22T06:19:03.585Z,97.23
2018-09-22T06:20:03.556Z,96.18
2018-09-22T06:21:03.478Z,95.79
2018-09-22T06:22:03.434Z,95.51
2018-09-22T06:23:03.443Z,96.47
2018-09-22T06:24:03.338Z,96.18
2018-09-22T06:25:03.343Z,96.89
2018-09-22T06:26:03.267Z,94.79
2018-09-22T06:27:03.230Z,94.70
2018-09-22T06:28:03.189Z,94.41
2018-09-22T06:29:03.173Z,94.21
2018-09-22T06:30:03.140Z,94.89
2018-09-22T06:31:03.074Z,95.61
2018-09-22T06:32:03.036Z,95.70
2018-09-22T06:33:02.999Z,95.41
2018-09-22T06:34:02.990Z,95.79
2018-09-22T06:35:02.973Z,96.51
2018-09-22T06:36:02.872Z,97.94
2018-09-22T06:37:02.843Z,97.47
2018-09-22T06:38:02.792Z,97.47
2018-09-22T06:39:02.764Z,98.42
2018-09-22T06:40:02.736Z,98.23
2018-09-22T06:41:02.719Z,98.13
2018-09-22T06:42:02.641Z,98.13
2018-09-22T06:43:02.603Z,97.28
2018-09-22T06:44:02.552Z,97.13
2018-09-22T06:45:02.549Z,96.75
2018-09-22T06:46:02.553Z,96.75
2018-09-22T06:47:02.447Z,96.84
2018-09-22T06:48:02.399Z,96.56
2018-09-22T06:49:02.375Z,95.51
2018-09-22T06:50:02.326Z,95.98
2018-09-22T06:51:02.351Z,95.79
2018-09-22T06:52:02.281Z,96.47
2018-09-22T06:53:02.203Z,95.98
2018-09-22T06:54:02.181Z,95.79
2018-09-22T06:55:02.138Z,95.98
2018-09-22T06:56:02.100Z,95.79
2018-09-22T06:57:02.090Z,95.94
2018-09-22T06:58:02.006Z,94.79
2018-09-22T06:59:01.993Z,94.41
2018-09-22T07:00:01.947Z,94.41
2018-09-22T07:01:01.887Z,93.45
2018-09-22T07:02:01.873Z,93.64
2018-09-22T07:03:12.030Z,93.35
2018-09-22T07:04:01.816Z,93.74
2018-09-22T07:05:01.746Z,93.93
2018-09-22T07:06:01.696Z,93.79
2018-09-22T07:07:01.723Z,93.12
2018-09-22T07:08:01.615Z,93.55
2018-09-22T07:09:01.572Z,93.64
2018-09-22T07:10:01.535Z,93.55
2018-09-22T07:11:01.534Z,94.21
2018-09-22T07:12:01.456Z,92.63
2018-09-22T07:13:01.458Z,92.06
2018-09-22T07:14:01.392Z,91.58
2018-09-22T07:15:01.367Z,93.12
2018-09-22T07:16:01.315Z,91.97
2018-09-22T07:17:01.316Z,93.50
2018-09-22T07:18:01.239Z,92.54
2018-09-22T07:19:01.189Z,92.83
2018-09-22T07:20:01.224Z,92.54
2018-09-22T07:21:01.118Z,92.59
2018-09-22T07:22:01.106Z,93.35
2018-09-22T07:23:01.048Z,93.16
2018-09-22T07:24:01.017Z,93.07
2018-09-22T07:25:00.955Z,93.55
2018-09-22T07:26:00.936Z,93.45
2018-09-22T07:27:00.880Z,94.12
2018-09-22T07:28:00.887Z,93.40
2018-09-22T07:29:00.821Z,93.98
2018-09-22T07:30:00.767Z,93.88
2018-09-22T07:31:00.785Z,93.88
2018-09-22T07:32:00.696Z,92.92
2018-09-22T07:33:00.677Z,92.44
2018-09-22T07:34:00.677Z,93.21
2018-09-22T07:35:00.591Z,93.30
2018-09-22T07:36:00.549Z,92.92
2018-09-22T07:37:00.544Z,92.35
2018-09-22T07:38:00.498Z,93.59
2018-09-22T07:39:00.443Z,93.12
2018-09-22T07:40:00.377Z,93.21
2018-09-22T07:41:00.359Z,93.30
2018-09-22T07:42:00.315Z,93.93
2018-09-22T07:43:00.323Z,91.82
2018-09-22T07:44:00.267Z,91.00
2018-09-22T07:45:00.204Z,90.00
2018-09-22T07:46:00.201Z,89.04
2018-09-22T07:47:00.121Z,89.57
2018-09-22T07:48:00.093Z,89.43
2018-09-22T07:49:00.083Z,89.52
2018-09-22T07:49:59.996Z,88.66
2018-09-22T07:50:59.968Z,89.33
2018-09-22T07:51:59.931Z,90.09
2018-09-22T07:52:59.890Z,89.95
2018-09-22T07:53:59.893Z,89.57
2018-09-22T07:54:59.856Z,88.32
2018-09-22T07:55:59.780Z,89.09
2018-09-22T07:56:59.777Z,89.18
2018-09-22T07:57:59.718Z,89.18
2018-09-22T07:58:59.663Z,89.28
2018-09-22T07:59:59.679Z,87.74
2018-09-22T08:00:59.590Z,87.94
2018-09-22T08:01:59.558Z,87.27
2018-09-22T08:02:59.523Z,87.27
2018-09-22T08:03:59.505Z,86.50
2018-09-22T08:04:59.437Z,87.65
2018-09-22T08:05:59.406Z,88.13
2018-09-22T08:06:59.383Z,87.46
2018-09-22T08:07:59.335Z,87.84
2018-09-22T08:08:59.314Z,88.51
2018-09-22T08:09:59.265Z,88.70
2018-09-22T08:10:59.222Z,86.88
2018-09-22T08:11:59.172Z,86.25
2018-09-22T08:13:10.698Z,87.12
2018-09-22T08:13:59.125Z,86.35
2018-09-22T08:14:59.142Z,85.97
2018-09-22T08:15:59.030Z,85.68
2018-09-22T08:16:59.691Z,85.58
2018-09-22T08:17:58.960Z,86.21
2018-09-22T08:18:58.919Z,86.41
2018-09-22T08:19:58.940Z,87.74
2018-09-22T08:20:58.840Z,87.41
2018-09-22T08:21:58.815Z,87.99
2018-09-22T08:22:58.760Z,90.00
2018-09-22T08:23:58.746Z,89.23
2018-09-22T08:24:58.744Z,88.56
2018-09-22T08:25:58.673Z,89.43
2018-09-22T08:26:58.637Z,88.61
2018-09-22T08:27:58.581Z,88.80
2018-09-22T08:28:58.550Z,88.90
2018-09-22T08:29:58.567Z,87.94
2018-09-22T08:30:58.485Z,88.90
2018-09-22T08:31:58.439Z,88.70
2018-09-22T08:32:58.403Z,88.32
2018-09-22T08:33:58.373Z,87.46
2018-09-22T08:34:58.347Z,87.08
2018-09-22T08:35:58.385Z,87.74
2018-09-22T08:37:08.808Z,88.09
2018-09-22T08:37:58.228Z,88.80
2018-09-22T08:38:58.170Z,87.37
2018-09-22T08:39:58.311Z,86.60
2018-09-22T08:40:58.155Z,85.49
2018-09-22T08:41:58.168Z,85.78
2018-09-22T08:42:58.049Z,85.05
2018-09-22T08:43:58.066Z,84.48
2018-09-22T08:44:58.016Z,84.00
2018-09-22T08:45:57.953Z,83.94
2018-09-22T08:46:57.879Z,83.56
2018-09-22T08:48:10.353Z,82.03
2018-09-22T08:48:57.837Z,80.68
2018-09-22T08:49:57.864Z,81.64
2018-09-22T08:50:57.805Z,80.82
2018-09-22T08:51:57.713Z,80.34
2018-09-22T08:52:57.659Z,79.96
2018-09-22T08:53:57.623Z,78.70
2018-09-22T08:54:57.587Z,79.03
2018-09-22T08:55:57.620Z,79.28
2018-09-22T08:56:57.507Z,79.32
2018-09-22T08:57:57.521Z,77.53
2018-09-22T08:58:57.451Z,76.29
2018-09-22T08:59:57.421Z,76.32
2018-09-22T09:01:06.156Z,75.75
2018-09-22T09:01:57.355Z,74.44
2018-09-22T09:02:57.300Z,74.19
2018-09-22T09:03:57.273Z,73.63
2018-09-22T09:04:57.289Z,74.21
2018-09-22T09:05:57.240Z,74.69
2018-09-22T09:06:57.185Z,74.98
2018-09-22T09:07:57.135Z,74.21
2018-09-22T09:08:57.125Z,74.34
2018-09-22T09:09:57.061Z,74.79
2018-09-22T09:10:57.036Z,74.27
2018-09-22T09:11:57.025Z,75.23
2018-09-22T09:12:56.968Z,75.42
2018-09-22T09:13:56.943Z,75.62
2018-09-22T09:14:56.906Z,74.60
2018-09-22T09:15:56.856Z,73.25
2018-09-22T09:16:56.874Z,72.96
2018-09-22T09:17:56.791Z,74.25
2018-09-22T09:18:56.779Z,72.84
2018-09-22T09:19:56.719Z,72.65
2018-09-22T09:20:56.692Z,71.62
2018-09-22T09:21:56.684Z,70.37
2018-09-22T09:22:56.626Z,68.44
2018-09-22T09:23:56.603Z,68.64
2018-09-22T09:24:56.573Z,68.84
2018-09-22T09:25:56.527Z,67.77
2018-09-22T09:26:56.507Z,68.74
2018-09-22T09:27:56.470Z,68.99
2018-09-22T09:28:56.428Z,69.02
2018-09-22T09:29:56.405Z,67.19
2018-09-22T09:30:56.352Z,68.54
2018-09-22T09:31:56.330Z,67.58
2018-09-22T09:32:56.322Z,67.81
2018-09-22T09:33:56.273Z,66.75
2018-09-22T09:34:56.224Z,66.94
2018-09-22T09:35:56.215Z,67.49
2018-09-22T09:36:56.169Z,68.16
2018-09-22T09:37:56.178Z,68.44
2018-09-22T09:38:56.092Z,67.65
2018-09-22T09:39:56.059Z,68.51
2018-09-22T09:40:56.068Z,68.90
2018-09-22T09:41:56.023Z,68.80
2018-09-22T09:42:56.009Z,68.80
2018-09-22T09:43:55.931Z,68.99
2018-09-22T09:44:55.899Z,68.96
2018-09-22T09:45:55.874Z,70.30
2018-09-22T09:46:55.850Z,68.67
2018-09-22T09:47:55.838Z,69.21
2018-09-22T09:48:55.786Z,70.75
2018-09-22T09:49:55.736Z,71.14
2018-09-22T09:50:55.706Z,71.33
2018-09-22T09:51:55.661Z,71.52
2018-09-22T09:52:55.638Z,72.58
2018-09-22T09:53:55.648Z,72.34
2018-09-22T09:54:55.660Z,72.73
2018-09-22T09:55:55.535Z,71.96
2018-09-22T09:56:55.507Z,72.54
2018-09-22T09:57:55.485Z,73.21
2018-09-22T09:58:55.461Z,72.83
2018-09-22T09:59:55.410Z,73.79
2018-09-22T10:00:55.373Z,73.02
2018-09-22T10:01:55.355Z,72.16
2018-09-22T10:02:55.292Z,72.67
2018-09-22T10:03:55.292Z,71.77
2018-09-22T10:04:55.247Z,70.94
2018-09-22T10:05:55.249Z,71.67
2018-09-22T10:06:55.180Z,71.96
2018-09-22T10:07:55.166Z,70.14
2018-09-22T10:08:55.139Z,70.52
2018-09-22T10:09:55.065Z,70.65
2018-09-22T10:10:55.031Z,70.65
2018-09-22T10:11:55.068Z,70.65
2018-09-22T10:12:54.968Z,68.63
2018-09-22T10:13:54.928Z,68.35
2018-09-22T10:14:54.916Z,68.35
2018-09-22T10:15:54.857Z,67.64
2018-09-22T10:16:54.824Z,67.64
2018-09-22T10:17:54.821Z,68.70
2018-09-22T10:18:54.759Z,68.31
2018-09-22T10:19:54.746Z,68.31
2018-09-22T10:20:54.686Z,68.51
2018-09-22T10:21:54.650Z,68.57
2018-09-22T10:22:54.616Z,69.05
2018-09-22T10:23:54.586Z,70.81
2018-09-22T10:24:54.581Z,68.92
2018-09-22T10:25:54.526Z,68.06
2018-09-22T10:26:54.491Z,67.58
2018-09-22T10:27:54.491Z,67.58
2018-09-22T10:28:54.450Z,69.60
2018-09-22T10:29:54.380Z,69.50
2018-09-22T10:30:54.369Z,68.54
2018-09-22T10:31:54.366Z,68.73
2018-09-22T10:32:54.293Z,67.77
2018-09-22T10:33:54.241Z,68.67
2018-09-22T10:34:54.208Z,66.68
2018-09-22T10:35:54.192Z,66.39
2018-09-22T10:36:54.166Z,66.68
2018-09-22T10:37:54.107Z,66.55
2018-09-22T10:38:54.072Z,65.69
2018-09-22T10:39:54.120Z,67.22
2018-09-22T10:40:54.039Z,69.06
2018-09-22T10:41:53.967Z,68.38
2018-09-22T10:42:53.948Z,68.67
2018-09-22T10:43:53.910Z,69.24
2018-09-22T10:44:53.879Z,68.76
2018-09-22T10:45:53.862Z,68.99
2018-09-22T10:46:53.828Z,68.48
2018-09-22T10:47:53.771Z,68.76
2018-09-22T10:48:53.726Z,67.68
2018-09-22T10:49:53.716Z,68.83
2018-09-22T10:50:53.664Z,69.50
2018-09-22T10:51:53.662Z,70.33
2018-09-22T10:52:53.658Z,70.14
2018-09-22T10:53:53.568Z,71.48
2018-09-22T10:54:53.536Z,71.58
2018-09-22T10:55:53.496Z,71.42
2018-09-22T10:56:53.524Z,70.81
2018-09-22T10:57:53.433Z,70.90
2018-09-22T10:58:53.437Z,70.90
2018-09-22T10:59:53.368Z,71.23
2018-09-22T11:00:53.322Z,72.58
2018-09-22T11:01:53.322Z,72.00
2018-09-22T11:02:53.266Z,71.87
2018-09-22T11:03:53.265Z,71.29
2018-09-22T11:04:53.195Z,71.67
2018-09-22T11:05:53.158Z,71.67
2018-09-22T11:06:53.156Z,71.39
2018-09-22T11:07:53.081Z,71.91
2018-09-22T11:08:53.035Z,71.71
2018-09-22T11:09:53.023Z,71.61
2018-09-22T11:10:53.002Z,71.61
2018-09-22T11:11:52.953Z,71.33
2018-09-22T11:12:52.914Z,71.52
2018-09-22T11:13:52.865Z,72.19
2018-09-22T11:14:52.843Z,72.29
2018-09-22T11:15:52.800Z,71.48
2018-09-22T11:16:52.791Z,71.48
2018-09-22T11:17:52.744Z,72.06
2018-09-22T11:18:52.713Z,71.67
2018-09-22T11:19:52.676Z,72.44
2018-09-22T11:20:52.652Z,72.31
2018-09-22T11:21:52.594Z,71.73
2018-09-22T11:22:52.566Z,72.41
2018-09-22T11:23:52.574Z,72.89
2018-09-22T11:24:52.505Z,73.08
2018-09-22T11:25:52.451Z,72.89
2018-09-22T11:26:52.489Z,72.99
2018-09-22T11:27:52.406Z,72.54
2018-09-22T11:28:52.367Z,71.64
2018-09-22T11:29:52.333Z,71.96
2018-09-22T11:30:52.280Z,72.44
2018-09-22T11:31:52.295Z,72.16
2018-09-22T11:32:52.222Z,72.44
2018-09-22T11:33:52.176Z,71.77
2018-09-22T11:34:52.131Z,72.16
2018-09-22T11:35:52.116Z,71.96
2018-09-22T11:36:52.120Z,71.67
2018-09-22T11:37:52.038Z,71.33
2018-09-22T11:38:52.018Z,71.33
2018-09-22T11:39:51.977Z,71.23
2018-09-22T11:40:51.921Z,70.65
2018-09-22T11:41:51.944Z,70.75
2018-09-22T11:42:51.884Z,71.71
2018-09-22T11:43:51.830Z,71.61
2018-09-22T11:44:51.789Z,72.09
2018-09-22T11:45:51.766Z,72.19
2018-09-22T11:46:51.715Z,71.81
2018-09-22T11:47:51.698Z,71.71
2018-09-22T11:48:51.655Z,71.96
2018-09-22T11:49:51.652Z,71.39
2018-09-22T11:50:51.577Z,72.25
2018-09-22T11:51:51.538Z,72.38
2018-09-22T11:52:51.543Z,72.29
2018-09-22T11:53:51.474Z,72.00
2018-09-22T11:54:51.443Z,72.00
2018-09-22T11:56:01.358Z,72.19
2018-09-22T11:56:51.408Z,71.91
2018-09-22T11:57:51.415Z,72.48
2018-09-22T11:58:51.344Z,72.77
2018-09-22T11:59:51.260Z,72.67
2018-09-22T12:00:51.221Z,73.02
2018-09-22T12:01:51.198Z,73.63
2018-09-22T12:02:51.197Z,73.21
2018-09-22T12:03:51.122Z,73.85
2018-09-22T12:04:51.102Z,74.33
2018-09-22T12:05:51.107Z,74.23
2018-09-22T12:06:51.125Z,74.62
2018-09-22T12:07:51.012Z,74.71
2018-09-22T12:09:01.316Z,74.23
2018-09-22T12:09:50.976Z,73.18
2018-09-22T12:10:50.888Z,73.75
2018-09-22T12:11:51.309Z,73.56
2018-09-22T12:12:50.827Z,73.85
2018-09-22T12:13:50.768Z,74.33
2018-09-22T12:14:50.737Z,73.66
2018-09-22T12:15:50.696Z,74.04
2018-09-22T12:16:50.675Z,74.13
2018-09-22T12:17:50.624Z,73.72
2018-09-22T12:18:50.641Z,74.29
2018-09-22T12:19:50.559Z,74.68
2018-09-22T12:20:50.544Z,75.45
2018-09-22T12:21:50.482Z,75.89
2018-09-22T12:22:50.509Z,75.70
2018-09-22T12:23:50.429Z,75.50
2018-09-22T12:24:50.380Z,74.73
2018-09-22T12:25:50.344Z,75.60
2018-09-22T12:26:50.309Z,76.07
2018-09-22T12:27:50.287Z,75.89
2018-09-22T12:28:50.281Z,76.07
2018-09-22T12:29:50.228Z,75.79
2018-09-22T12:30:50.188Z,76.17
2018-09-22T12:31:50.152Z,76.17
2018-09-22T12:32:50.096Z,75.79
2018-09-22T12:33:50.049Z,75.50
2018-09-22T12:34:50.042Z,75.60
2018-09-22T12:35:49.972Z,75.79
2018-09-22T12:36:49.960Z,76.65
2018-09-22T12:37:49.904Z,76.65
2018-09-22T12:38:49.878Z,75.89
2018-09-22T12:39:49.865Z,76.56
2018-09-22T12:40:49.842Z,75.98
2018-09-22T12:41:49.760Z,75.79
2018-09-22T12:42:49.720Z,75.98
2018-09-22T12:43:49.693Z,76.27
2018-09-22T12:44:49.736Z,76.07
2018-09-22T12:45:49.622Z,75.79
2018-09-22T12:46:49.585Z,75.98
2018-09-22T12:47:49.560Z,75.79
2018-09-22T12:48:49.496Z,75.89
2018-09-22T12:49:49.475Z,76.56
2018-09-22T12:50:49.445Z,75.89
2018-09-22T12:51:49.428Z,76.07